sensor_id;sensor_type;location;lat;lon;timestamp;temperature;humidity
5344;DHT22;2694;48.954;8.928;2023-12-20T00:00:38;4.70;99.90
5344;DHT22;2694;48.954;8.928;2023-12-20T00:03:05;4.70;99.90
5344;DHT22;2694;48.954;8.928;2023-12-20T00:05:32;4.70;99.90
5344;DHT22;2694;48.954;8.928;2023-12-20T00:08:00;6.10;99.90
5344;DHT22;2694;48.954;8.928;2023-12-20T00:10:26;4.60;99.90
5344;DHT22;2694;48.954;8.928;2023-12-20T00:12:53;4.60;99.90
5344;DHT22;2694;48.954;8.928;2023-12-20T00:15:21;4.60;99.90
5344;DHT22;2694;48.954;8.928;2023-12-20T00:17:48;4.60;99.90
5344;DHT22;2694;48.954;8.928;2023-12-20T00:20:15;4.50;99.90
5344;DHT22;2694;48.954;8.928;2023-12-20T00:22:42;4.50;99.90
5344;DHT22;2694;48.954;8.928;2023-12-20T00:25:09;4.50;99.90
5344;DHT22;2694;48.954;8.928;2023-12-20T00:27:36;4.50;99.90
5344;DHT22;2694;48.954;8.928;2023-12-20T00:30:03;4.50;99.90
5344;DHT22;2694;48.954;8.928;2023-12-20T00:32:32;4.40;99.90
5344;DHT22;2694;48.954;8.928;2023-12-20T00:34:59;4.50;99.90
5344;DHT22;2694;48.954;8.928;2023-12-20T00:37:26;4.40;99.90
5344;DHT22;2694;48.954;8.928;2023-12-20T00:39:52;4.40;99.90
5344;DHT22;2694;48.954;8.928;2023-12-20T00:42:19;4.40;99.90
5344;DHT22;2694;48.954;8.928;2023-12-20T00:44:46;4.50;99.90
5344;DHT22;2694;48.954;8.928;2023-12-20T00:47:13;4.50;99.90
5344;DHT22;2694;48.954;8.928;2023-12-20T00:49:41;4.50;99.90
5344;DHT22;2694;48.954;8.928;2023-12-20T00:52:08;4.50;99.90
5344;DHT22;2694;48.954;8.928;2023-12-20T00:54:35;4.50;99.90
5344;DHT22;2694;48.954;8.928;2023-12-20T00:57:02;4.50;99.90
5344;DHT22;2694;48.954;8.928;2023-12-20T00:59:29;4.50;99.90
5344;DHT22;2694;48.954;8.928;2023-12-20T01:01:56;4.50;99.90
5344;DHT22;2694;48.954;8.928;2023-12-20T01:04:23;4.50;99.90
5344;DHT22;2694;48.954;8.928;2023-12-20T01:06:52;4.60;99.90
5344;DHT22;2694;48.954;8.928;2023-12-20T01:09:19;4.60;99.90
5344;DHT22;2694;48.954;8.928;2023-12-20T01:11:48;4.60;99.90
5344;DHT22;2694;48.954;8.928;2023-12-20T01:14:15;4.60;99.90
5344;DHT22;2694;48.954;8.928;2023-12-20T01:16:42;4.60;99.90
5344;DHT22;2694;48.954;8.928;2023-12-20T01:19:09;4.60;99.90
5344;DHT22;2694;48.954;8.928;2023-12-20T01:21:36;4.60;99.90
5344;DHT22;2694;48.954;8.928;2023-12-20T01:24:04;4.60;99.90
5344;DHT22;2694;48.954;8.928;2023-12-20T01:26:31;4.60;99.90
5344;DHT22;2694;48.954;8.928;2023-12-20T01:28:58;4.70;99.90
5344;DHT22;2694;48.954;8.928;2023-12-20T01:31:26;4.60;99.90
5344;DHT22;2694;48.954;8.928;2023-12-20T01:33:52;4.70;99.90
5344;DHT22;2694;48.954;8.928;2023-12-20T01:36:19;4.80;99.90
5344;DHT22;2694;48.954;8.928;2023-12-20T01:38:46;4.90;99.90
5344;DHT22;2694;48.954;8.928;2023-12-20T01:41:14;5.00;99.90
5344;DHT22;2694;48.954;8.928;2023-12-20T01:43:42;5.00;99.90
5344;DHT22;2694;48.954;8.928;2023-12-20T01:46:09;5.10;99.90
5344;DHT22;2694;48.954;8.928;2023-12-20T01:48:37;5.10;99.90
5344;DHT22;2694;48.954;8.928;2023-12-20T01:51:04;5.10;99.90
5344;DHT22;2694;48.954;8.928;2023-12-20T01:53:31;5.10;99.90
5344;DHT22;2694;48.954;8.928;2023-12-20T01:55:59;5.20;99.90
5344;DHT22;2694;48.954;8.928;2023-12-20T01:58:28;5.20;99.90
5344;DHT22;2694;48.954;8.928;2023-12-20T02:00:55;5.20;99.90
5344;DHT22;2694;48.954;8.928;2023-12-20T02:03:22;5.20;99.90
5344;DHT22;2694;48.954;8.928;2023-12-20T02:05:50;5.30;99.90
5344;DHT22;2694;48.954;8.928;2023-12-20T02:08:17;5.20;99.90
5344;DHT22;2694;48.954;8.928;2023-12-20T02:10:44;5.40;99.90
5344;DHT22;2694;48.954;8.928;2023-12-20T02:13:11;5.40;99.90
5344;DHT22;2694;48.954;8.928;2023-12-20T02:15:39;5.30;99.90
5344;DHT22;2694;48.954;8.928;2023-12-20T02:18:08;5.30;99.90
5344;DHT22;2694;48.954;8.928;2023-12-20T02:20:35;5.40;99.90
5344;DHT22;2694;48.954;8.928;2023-12-20T02:23:03;5.30;99.90
5344;DHT22;2694;48.954;8.928;2023-12-20T02:25:30;5.40;99.90
5344;DHT22;2694;48.954;8.928;2023-12-20T02:27:57;5.40;99.90
5344;DHT22;2694;48.954;8.928;2023-12-20T02:30:24;5.40;99.90
5344;DHT22;2694;48.954;8.928;2023-12-20T02:32:51;5.40;99.90
5344;DHT22;2694;48.954;8.928;2023-12-20T02:35:19;5.40;99.90
5344;DHT22;2694;48.954;8.928;2023-12-20T02:37:45;5.40;99.90
5344;DHT22;2694;48.954;8.928;2023-12-20T02:40:14;5.40;99.90
5344;DHT22;2694;48.954;8.928;2023-12-20T02:42:40;5.30;99.90
5344;DHT22;2694;48.954;8.928;2023-12-20T02:45:08;5.30;99.90
5344;DHT22;2694;48.954;8.928;2023-12-20T02:47:35;5.30;99.90
5344;DHT22;2694;48.954;8.928;2023-12-20T02:50:02;5.30;99.90
5344;DHT22;2694;48.954;8.928;2023-12-20T02:52:29;5.30;99.90
5344;DHT22;2694;48.954;8.928;2023-12-20T02:54:56;5.30;99.90
5344;DHT22;2694;48.954;8.928;2023-12-20T02:57:24;5.20;99.90
5344;DHT22;2694;48.954;8.928;2023-12-20T02:59:51;5.20;99.90
5344;DHT22;2694;48.954;8.928;2023-12-20T03:02:17;5.20;99.90
5344;DHT22;2694;48.954;8.928;2023-12-20T03:04:45;5.20;99.90
5344;DHT22;2694;48.954;8.928;2023-12-20T03:07:11;5.20;99.90
5344;DHT22;2694;48.954;8.928;2023-12-20T03:09:38;5.20;99.90
5344;DHT22;2694;48.954;8.928;2023-12-20T03:12:05;5.20;99.90
5344;DHT22;2694;48.954;8.928;2023-12-20T03:14:33;5.20;99.90
5344;DHT22;2694;48.954;8.928;2023-12-20T03:17:00;5.20;99.90
5344;DHT22;2694;48.954;8.928;2023-12-20T03:19:27;5.20;99.90
5344;DHT22;2694;48.954;8.928;2023-12-20T03:21:54;5.20;99.90
5344;DHT22;2694;48.954;8.928;2023-12-20T03:24:21;5.20;99.90
5344;DHT22;2694;48.954;8.928;2023-12-20T03:26:48;5.20;99.90
5344;DHT22;2694;48.954;8.928;2023-12-20T03:29:15;5.20;99.90
5344;DHT22;2694;48.954;8.928;2023-12-20T03:31:43;5.20;99.90
5344;DHT22;2694;48.954;8.928;2023-12-20T03:34:11;5.10;99.90
5344;DHT22;2694;48.954;8.928;2023-12-20T03:36:38;5.10;99.90
5344;DHT22;2694;48.954;8.928;2023-12-20T03:39:05;5.20;99.90
5344;DHT22;2694;48.954;8.928;2023-12-20T03:41:31;5.10;99.90
5344;DHT22;2694;48.954;8.928;2023-12-20T03:43:58;5.10;99.90
5344;DHT22;2694;48.954;8.928;2023-12-20T03:46:25;5.10;99.90
5344;DHT22;2694;48.954;8.928;2023-12-20T03:48:53;5.10;99.90
5344;DHT22;2694;48.954;8.928;2023-12-20T03:51:20;5.10;99.90
5344;DHT22;2694;48.954;8.928;2023-12-20T03:53:47;5.10;99.90
5344;DHT22;2694;48.954;8.928;2023-12-20T03:56:14;5.10;99.90
5344;DHT22;2694;48.954;8.928;2023-12-20T03:58:41;5.10;99.90
5344;DHT22;2694;48.954;8.928;2023-12-20T04:01:09;5.10;99.90
5344;DHT22;2694;48.954;8.928;2023-12-20T04:03:37;5.00;99.90
5344;DHT22;2694;48.954;8.928;2023-12-20T04:06:06;5.00;99.90
5344;DHT22;2694;48.954;8.928;2023-12-20T04:08:33;5.00;99.90
5344;DHT22;2694;48.954;8.928;2023-12-20T04:11:00;5.00;99.90
5344;DHT22;2694;48.954;8.928;2023-12-20T04:13:27;5.00;99.90
5344;DHT22;2694;48.954;8.928;2023-12-20T04:15:54;5.00;99.90
5344;DHT22;2694;48.954;8.928;2023-12-20T04:18:21;5.00;99.90
5344;DHT22;2694;48.954;8.928;2023-12-20T04:20:48;5.00;99.90
5344;DHT22;2694;48.954;8.928;2023-12-20T04:23:16;5.00;99.90
5344;DHT22;2694;48.954;8.928;2023-12-20T04:25:45;5.00;99.90
5344;DHT22;2694;48.954;8.928;2023-12-20T04:28:12;5.00;99.90
5344;DHT22;2694;48.954;8.928;2023-12-20T04:30:39;5.00;99.90
5344;DHT22;2694;48.954;8.928;2023-12-20T04:33:06;5.10;99.90
5344;DHT22;2694;48.954;8.928;2023-12-20T04:35:32;5.10;99.90
5344;DHT22;2694;48.954;8.928;2023-12-20T04:37:59;5.10;99.90
5344;DHT22;2694;48.954;8.928;2023-12-20T04:40:27;5.20;99.90
5344;DHT22;2694;48.954;8.928;2023-12-20T04:42:54;5.10;99.90
5344;DHT22;2694;48.954;8.928;2023-12-20T04:45:21;5.10;99.90
5344;DHT22;2694;48.954;8.928;2023-12-20T04:47:49;5.10;99.90
5344;DHT22;2694;48.954;8.928;2023-12-20T04:50:16;5.10;99.90
5344;DHT22;2694;48.954;8.928;2023-12-20T04:52:43;5.20;99.90
5344;DHT22;2694;48.954;8.928;2023-12-20T04:55:10;5.20;99.90
5344;DHT22;2694;48.954;8.928;2023-12-20T04:57:38;5.20;99.90
5344;DHT22;2694;48.954;8.928;2023-12-20T05:00:06;5.20;99.90
5344;DHT22;2694;48.954;8.928;2023-12-20T05:02:34;5.30;99.90
5344;DHT22;2694;48.954;8.928;2023-12-20T05:05:02;5.30;99.90
5344;DHT22;2694;48.954;8.928;2023-12-20T05:07:30;5.30;99.90
5344;DHT22;2694;48.954;8.928;2023-12-20T05:09:58;5.30;99.90
5344;DHT22;2694;48.954;8.928;2023-12-20T05:12:24;5.30;99.90
5344;DHT22;2694;48.954;8.928;2023-12-20T05:14:53;5.40;99.90
5344;DHT22;2694;48.954;8.928;2023-12-20T05:17:20;5.30;99.90
5344;DHT22;2694;48.954;8.928;2023-12-20T05:19:47;5.30;99.90
5344;DHT22;2694;48.954;8.928;2023-12-20T05:22:14;5.30;99.90
5344;DHT22;2694;48.954;8.928;2023-12-20T05:24:40;5.30;99.90
5344;DHT22;2694;48.954;8.928;2023-12-20T05:27:07;5.30;99.90
5344;DHT22;2694;48.954;8.928;2023-12-20T05:29:34;5.30;99.90
5344;DHT22;2694;48.954;8.928;2023-12-20T05:32:03;5.30;99.90
5344;DHT22;2694;48.954;8.928;2023-12-20T05:34:30;5.30;99.90
5344;DHT22;2694;48.954;8.928;2023-12-20T05:36:57;5.30;99.90
5344;DHT22;2694;48.954;8.928;2023-12-20T05:39:24;5.30;99.90
5344;DHT22;2694;48.954;8.928;2023-12-20T05:41:51;5.30;99.90
5344;DHT22;2694;48.954;8.928;2023-12-20T05:44:18;5.30;99.90
5344;DHT22;2694;48.954;8.928;2023-12-20T05:46:45;5.30;99.90
5344;DHT22;2694;48.954;8.928;2023-12-20T05:49:13;5.30;99.90
5344;DHT22;2694;48.954;8.928;2023-12-20T05:51:40;5.30;99.90
5344;DHT22;2694;48.954;8.928;2023-12-20T05:54:08;5.40;99.90
5344;DHT22;2694;48.954;8.928;2023-12-20T05:56:35;5.40;99.90
5344;DHT22;2694;48.954;8.928;2023-12-20T05:59:02;5.40;99.90
5344;DHT22;2694;48.954;8.928;2023-12-20T06:01:29;5.30;99.90
5344;DHT22;2694;48.954;8.928;2023-12-20T06:03:56;5.40;99.90
5344;DHT22;2694;48.954;8.928;2023-12-20T06:06:24;5.30;99.90
5344;DHT22;2694;48.954;8.928;2023-12-20T06:08:51;5.30;99.90
5344;DHT22;2694;48.954;8.928;2023-12-20T06:11:18;5.30;99.90
5344;DHT22;2694;48.954;8.928;2023-12-20T06:13:45;5.30;99.90
5344;DHT22;2694;48.954;8.928;2023-12-20T06:16:12;5.30;99.90
5344;DHT22;2694;48.954;8.928;2023-12-20T06:18:39;5.30;99.90
5344;DHT22;2694;48.954;8.928;2023-12-20T06:21:06;5.30;99.90
5344;DHT22;2694;48.954;8.928;2023-12-20T06:23:35;5.30;99.90
5344;DHT22;2694;48.954;8.928;2023-12-20T06:26:04;5.40;99.90
5344;DHT22;2694;48.954;8.928;2023-12-20T06:28:31;5.30;99.90
5344;DHT22;2694;48.954;8.928;2023-12-20T06:30:58;5.40;99.90
5344;DHT22;2694;48.954;8.928;2023-12-20T06:33:26;5.40;99.90
5344;DHT22;2694;48.954;8.928;2023-12-20T06:35:53;5.40;99.90
5344;DHT22;2694;48.954;8.928;2023-12-20T06:38:20;5.40;99.90
5344;DHT22;2694;48.954;8.928;2023-12-20T06:40:48;5.40;99.90
5344;DHT22;2694;48.954;8.928;2023-12-20T06:43:15;5.40;99.90
5344;DHT22;2694;48.954;8.928;2023-12-20T06:45:42;5.40;99.90
5344;DHT22;2694;48.954;8.928;2023-12-20T06:48:09;5.40;99.90
5344;DHT22;2694;48.954;8.928;2023-12-20T06:50:37;5.40;99.90
5344;DHT22;2694;48.954;8.928;2023-12-20T06:53:05;5.40;99.90
5344;DHT22;2694;48.954;8.928;2023-12-20T06:55:33;5.40;99.90
5344;DHT22;2694;48.954;8.928;2023-12-20T06:58:02;5.40;99.90
5344;DHT22;2694;48.954;8.928;2023-12-20T07:00:30;5.40;99.90
5344;DHT22;2694;48.954;8.928;2023-12-20T07:02:57;5.40;99.90
5344;DHT22;2694;48.954;8.928;2023-12-20T07:05:24;5.40;99.90
5344;DHT22;2694;48.954;8.928;2023-12-20T07:07:51;5.40;99.90
5344;DHT22;2694;48.954;8.928;2023-12-20T07:10:18;5.40;99.90
5344;DHT22;2694;48.954;8.928;2023-12-20T07:12:45;5.30;99.90
5344;DHT22;2694;48.954;8.928;2023-12-20T07:15:13;5.30;99.90
5344;DHT22;2694;48.954;8.928;2023-12-20T07:17:40;5.40;99.90
5344;DHT22;2694;48.954;8.928;2023-12-20T07:20:08;5.40;99.90
5344;DHT22;2694;48.954;8.928;2023-12-20T07:22:36;5.40;99.90
5344;DHT22;2694;48.954;8.928;2023-12-20T07:25:04;5.40;99.90
5344;DHT22;2694;48.954;8.928;2023-12-20T07:27:30;5.40;99.90
5344;DHT22;2694;48.954;8.928;2023-12-20T07:29:57;5.50;99.90
5344;DHT22;2694;48.954;8.928;2023-12-20T07:32:26;5.50;99.90
5344;DHT22;2694;48.954;8.928;2023-12-20T07:34:52;5.50;99.90
5344;DHT22;2694;48.954;8.928;2023-12-20T07:37:20;5.40;99.90
5344;DHT22;2694;48.954;8.928;2023-12-20T07:39:47;5.40;99.90
5344;DHT22;2694;48.954;8.928;2023-12-20T07:42:14;5.50;99.90
5344;DHT22;2694;48.954;8.928;2023-12-20T07:44:40;5.40;99.90
5344;DHT22;2694;48.954;8.928;2023-12-20T07:47:08;5.40;99.90
5344;DHT22;2694;48.954;8.928;2023-12-20T07:49:36;5.30;99.90
5344;DHT22;2694;48.954;8.928;2023-12-20T07:52:03;5.20;99.90
5344;DHT22;2694;48.954;8.928;2023-12-20T07:54:30;5.20;99.90
5344;DHT22;2694;48.954;8.928;2023-12-20T07:56:57;5.10;99.90
5344;DHT22;2694;48.954;8.928;2023-12-20T07:59:24;5.00;99.90
5344;DHT22;2694;48.954;8.928;2023-12-20T08:01:51;5.00;99.90
5344;DHT22;2694;48.954;8.928;2023-12-20T08:04:18;4.90;99.90
5344;DHT22;2694;48.954;8.928;2023-12-20T08:06:46;5.00;99.90
5344;DHT22;2694;48.954;8.928;2023-12-20T08:09:13;5.00;99.90
5344;DHT22;2694;48.954;8.928;2023-12-20T08:11:39;5.00;99.90
5344;DHT22;2694;48.954;8.928;2023-12-20T08:14:12;5.00;99.90
5344;DHT22;2694;48.954;8.928;2023-12-20T08:16:39;5.00;99.90
5344;DHT22;2694;48.954;8.928;2023-12-20T08:19:06;4.90;99.90
5344;DHT22;2694;48.954;8.928;2023-12-20T08:21:33;4.90;99.90
5344;DHT22;2694;48.954;8.928;2023-12-20T08:24:01;4.80;99.90
5344;DHT22;2694;48.954;8.928;2023-12-20T08:26:28;4.90;99.90
5344;DHT22;2694;48.954;8.928;2023-12-20T08:28:55;5.00;99.90
5344;DHT22;2694;48.954;8.928;2023-12-20T08:31:22;4.90;99.90
5344;DHT22;2694;48.954;8.928;2023-12-20T08:33:49;4.90;99.90
5344;DHT22;2694;48.954;8.928;2023-12-20T08:36:16;4.80;99.90
5344;DHT22;2694;48.954;8.928;2023-12-20T08:38:44;4.80;99.90
5344;DHT22;2694;48.954;8.928;2023-12-20T08:41:12;4.80;99.90
5344;DHT22;2694;48.954;8.928;2023-12-20T08:43:39;4.60;99.90
5344;DHT22;2694;48.954;8.928;2023-12-20T08:46:07;4.80;99.90
5344;DHT22;2694;48.954;8.928;2023-12-20T08:48:35;4.80;99.90
5344;DHT22;2694;48.954;8.928;2023-12-20T08:51:03;4.80;99.90
5344;DHT22;2694;48.954;8.928;2023-12-20T08:53:30;4.80;99.90
5344;DHT22;2694;48.954;8.928;2023-12-20T08:55:57;4.90;99.90
5344;DHT22;2694;48.954;8.928;2023-12-20T08:58:28;4.90;99.90
5344;DHT22;2694;48.954;8.928;2023-12-20T09:00:55;5.00;99.90
5344;DHT22;2694;48.954;8.928;2023-12-20T09:03:22;5.00;99.90
5344;DHT22;2694;48.954;8.928;2023-12-20T09:05:49;5.00;99.90
5344;DHT22;2694;48.954;8.928;2023-12-20T09:08:16;5.10;99.90
5344;DHT22;2694;48.954;8.928;2023-12-20T09:10:43;5.10;99.90
5344;DHT22;2694;48.954;8.928;2023-12-20T09:13:10;5.20;99.90
5344;DHT22;2694;48.954;8.928;2023-12-20T09:15:38;5.20;99.90
5344;DHT22;2694;48.954;8.928;2023-12-20T09:18:06;5.30;99.90
5344;DHT22;2694;48.954;8.928;2023-12-20T09:20:33;5.30;99.90
5344;DHT22;2694;48.954;8.928;2023-12-20T09:23:00;5.40;99.90
5344;DHT22;2694;48.954;8.928;2023-12-20T09:25:27;5.40;99.90
5344;DHT22;2694;48.954;8.928;2023-12-20T09:27:54;5.40;99.90
5344;DHT22;2694;48.954;8.928;2023-12-20T09:30:21;5.40;99.90
5344;DHT22;2694;48.954;8.928;2023-12-20T09:32:49;5.50;99.90
5344;DHT22;2694;48.954;8.928;2023-12-20T09:35:16;5.60;99.90
5344;DHT22;2694;48.954;8.928;2023-12-20T09:37:43;5.60;99.90
5344;DHT22;2694;48.954;8.928;2023-12-20T09:40:13;5.60;99.90
5344;DHT22;2694;48.954;8.928;2023-12-20T09:42:48;5.70;99.90
5344;DHT22;2694;48.954;8.928;2023-12-20T09:45:19;5.80;99.90
5344;DHT22;2694;48.954;8.928;2023-12-20T09:47:48;5.80;99.90
5344;DHT22;2694;48.954;8.928;2023-12-20T09:50:17;5.80;99.90
5344;DHT22;2694;48.954;8.928;2023-12-20T09:52:45;5.80;99.90
5344;DHT22;2694;48.954;8.928;2023-12-20T09:55:12;5.90;99.90
5344;DHT22;2694;48.954;8.928;2023-12-20T09:57:40;5.90;99.90
5344;DHT22;2694;48.954;8.928;2023-12-20T10:00:08;6.00;99.90
5344;DHT22;2694;48.954;8.928;2023-12-20T10:02:36;6.00;99.90
5344;DHT22;2694;48.954;8.928;2023-12-20T10:05:08;6.00;99.90
5344;DHT22;2694;48.954;8.928;2023-12-20T10:07:35;6.00;99.90
5344;DHT22;2694;48.954;8.928;2023-12-20T10:10:02;5.90;99.90
5344;DHT22;2694;48.954;8.928;2023-12-20T10:12:30;5.90;99.90
5344;DHT22;2694;48.954;8.928;2023-12-20T10:14:58;5.90;99.90
5344;DHT22;2694;48.954;8.928;2023-12-20T10:17:27;6.00;99.90
5344;DHT22;2694;48.954;8.928;2023-12-20T10:19:55;6.10;99.90
5344;DHT22;2694;48.954;8.928;2023-12-20T10:22:23;6.10;99.90
5344;DHT22;2694;48.954;8.928;2023-12-20T10:24:50;6.20;99.90
5344;DHT22;2694;48.954;8.928;2023-12-20T10:27:18;6.20;99.90
5344;DHT22;2694;48.954;8.928;2023-12-20T10:29:45;6.20;99.90
5344;DHT22;2694;48.954;8.928;2023-12-20T10:32:25;6.20;99.90
5344;DHT22;2694;48.954;8.928;2023-12-20T10:34:53;6.30;99.90
5344;DHT22;2694;48.954;8.928;2023-12-20T10:37:22;6.30;99.90
5344;DHT22;2694;48.954;8.928;2023-12-20T10:39:50;6.50;99.90
5344;DHT22;2694;48.954;8.928;2023-12-20T10:42:20;6.60;99.90
5344;DHT22;2694;48.954;8.928;2023-12-20T10:44:49;6.70;99.90
5344;DHT22;2694;48.954;8.928;2023-12-20T10:47:16;6.70;99.90
5344;DHT22;2694;48.954;8.928;2023-12-20T10:49:44;6.70;99.90
5344;DHT22;2694;48.954;8.928;2023-12-20T10:52:12;6.80;99.90
5344;DHT22;2694;48.954;8.928;2023-12-20T10:54:40;6.90;99.90
5344;DHT22;2694;48.954;8.928;2023-12-20T10:57:08;7.10;99.90
5344;DHT22;2694;48.954;8.928;2023-12-20T10:59:37;7.30;99.90
5344;DHT22;2694;48.954;8.928;2023-12-20T11:02:06;7.30;99.90
5344;DHT22;2694;48.954;8.928;2023-12-20T11:04:39;7.20;99.90
5344;DHT22;2694;48.954;8.928;2023-12-20T11:07:18;7.20;99.90
5344;DHT22;2694;48.954;8.928;2023-12-20T11:09:56;7.10;99.90
5344;DHT22;2694;48.954;8.928;2023-12-20T11:12:32;7.20;99.90
5344;DHT22;2694;48.954;8.928;2023-12-20T11:15:01;7.30;99.90
5344;DHT22;2694;48.954;8.928;2023-12-20T11:17:31;7.10;99.90
5344;DHT22;2694;48.954;8.928;2023-12-20T11:20:05;7.10;99.90
5344;DHT22;2694;48.954;8.928;2023-12-20T11:22:34;7.00;99.90
5344;DHT22;2694;48.954;8.928;2023-12-20T11:25:06;6.90;99.90
5344;DHT22;2694;48.954;8.928;2023-12-20T11:27:33;6.80;99.90
5344;DHT22;2694;48.954;8.928;2023-12-20T11:30:03;6.70;99.90
5344;DHT22;2694;48.954;8.928;2023-12-20T11:32:34;6.80;99.90
5344;DHT22;2694;48.954;8.928;2023-12-20T11:35:17;6.70;99.90
5344;DHT22;2694;48.954;8.928;2023-12-20T11:37:45;6.70;99.90
5344;DHT22;2694;48.954;8.928;2023-12-20T11:40:15;6.60;99.90
5344;DHT22;2694;48.954;8.928;2023-12-20T11:42:44;6.50;99.90
5344;DHT22;2694;48.954;8.928;2023-12-20T11:45:14;6.50;99.90
5344;DHT22;2694;48.954;8.928;2023-12-20T11:47:43;6.60;99.90
5344;DHT22;2694;48.954;8.928;2023-12-20T11:50:10;6.70;99.90
5344;DHT22;2694;48.954;8.928;2023-12-20T11:52:37;6.90;99.90
5344;DHT22;2694;48.954;8.928;2023-12-20T11:55:05;6.90;99.90
5344;DHT22;2694;48.954;8.928;2023-12-20T11:57:34;6.90;99.90
5344;DHT22;2694;48.954;8.928;2023-12-20T12:00:01;6.80;99.90
5344;DHT22;2694;48.954;8.928;2023-12-20T12:02:29;6.70;99.90
5344;DHT22;2694;48.954;8.928;2023-12-20T12:04:56;6.70;99.90
5344;DHT22;2694;48.954;8.928;2023-12-20T12:07:24;6.70;99.90
5344;DHT22;2694;48.954;8.928;2023-12-20T12:09:51;6.60;99.90
5344;DHT22;2694;48.954;8.928;2023-12-20T12:12:19;6.60;99.90
5344;DHT22;2694;48.954;8.928;2023-12-20T12:14:48;6.50;99.90
5344;DHT22;2694;48.954;8.928;2023-12-20T12:17:15;6.60;99.90
5344;DHT22;2694;48.954;8.928;2023-12-20T12:19:43;6.60;99.90
5344;DHT22;2694;48.954;8.928;2023-12-20T12:22:11;6.60;99.90
5344;DHT22;2694;48.954;8.928;2023-12-20T12:24:39;6.60;99.90
5344;DHT22;2694;48.954;8.928;2023-12-20T12:27:06;6.70;99.90
5344;DHT22;2694;48.954;8.928;2023-12-20T12:29:34;6.60;99.90
5344;DHT22;2694;48.954;8.928;2023-12-20T12:32:05;6.60;99.90
5344;DHT22;2694;48.954;8.928;2023-12-20T12:34:32;6.70;99.90
5344;DHT22;2694;48.954;8.928;2023-12-20T12:37:00;6.80;99.90
5344;DHT22;2694;48.954;8.928;2023-12-20T12:39:26;6.70;99.90
5344;DHT22;2694;48.954;8.928;2023-12-20T12:41:55;6.50;99.90
5344;DHT22;2694;48.954;8.928;2023-12-20T12:44:22;6.50;99.90
5344;DHT22;2694;48.954;8.928;2023-12-20T12:46:50;6.50;99.90
5344;DHT22;2694;48.954;8.928;2023-12-20T12:49:20;6.60;99.90
5344;DHT22;2694;48.954;8.928;2023-12-20T12:51:47;6.50;99.90
5344;DHT22;2694;48.954;8.928;2023-12-20T12:54:14;6.50;99.90
5344;DHT22;2694;48.954;8.928;2023-12-20T12:56:43;6.50;99.90
5344;DHT22;2694;48.954;8.928;2023-12-20T12:59:10;6.60;99.90
5344;DHT22;2694;48.954;8.928;2023-12-20T13:01:37;6.60;99.90
5344;DHT22;2694;48.954;8.928;2023-12-20T13:04:04;6.60;99.90
5344;DHT22;2694;48.954;8.928;2023-12-20T13:06:37;6.60;99.90
5344;DHT22;2694;48.954;8.928;2023-12-20T13:09:04;6.60;99.90
5344;DHT22;2694;48.954;8.928;2023-12-20T13:11:31;6.70;99.90
5344;DHT22;2694;48.954;8.928;2023-12-20T13:13:58;6.70;99.90
5344;DHT22;2694;48.954;8.928;2023-12-20T13:16:25;6.70;99.90
5344;DHT22;2694;48.954;8.928;2023-12-20T13:18:52;6.50;99.90
5344;DHT22;2694;48.954;8.928;2023-12-20T13:21:19;6.40;99.90
5344;DHT22;2694;48.954;8.928;2023-12-20T13:23:47;6.60;99.90
5344;DHT22;2694;48.954;8.928;2023-12-20T13:26:14;6.40;99.90
5344;DHT22;2694;48.954;8.928;2023-12-20T13:28:41;6.30;99.90
5344;DHT22;2694;48.954;8.928;2023-12-20T13:31:08;6.20;99.90
5344;DHT22;2694;48.954;8.928;2023-12-20T13:33:35;6.10;99.90
5344;DHT22;2694;48.954;8.928;2023-12-20T13:36:02;6.10;99.90
5344;DHT22;2694;48.954;8.928;2023-12-20T13:38:29;5.90;99.90
5344;DHT22;2694;48.954;8.928;2023-12-20T13:40:58;6.00;99.90
5344;DHT22;2694;48.954;8.928;2023-12-20T13:43:25;5.90;99.90
5344;DHT22;2694;48.954;8.928;2023-12-20T13:45:51;5.90;99.90
5344;DHT22;2694;48.954;8.928;2023-12-20T13:48:18;5.90;99.90
5344;DHT22;2694;48.954;8.928;2023-12-20T13:50:45;5.90;99.90
5344;DHT22;2694;48.954;8.928;2023-12-20T13:53:12;5.90;99.90
5344;DHT22;2694;48.954;8.928;2023-12-20T13:55:39;5.80;99.90
5344;DHT22;2694;48.954;8.928;2023-12-20T13:58:07;5.80;99.90
5344;DHT22;2694;48.954;8.928;2023-12-20T14:00:35;5.80;99.90
5344;DHT22;2694;48.954;8.928;2023-12-20T14:03:04;5.80;99.90
5344;DHT22;2694;48.954;8.928;2023-12-20T14:05:31;5.70;99.90
5344;DHT22;2694;48.954;8.928;2023-12-20T14:07:59;5.70;99.90
5344;DHT22;2694;48.954;8.928;2023-12-20T14:10:26;5.70;99.90
5344;DHT22;2694;48.954;8.928;2023-12-20T14:12:53;5.70;99.90
5344;DHT22;2694;48.954;8.928;2023-12-20T14:15:21;5.60;99.90
5344;DHT22;2694;48.954;8.928;2023-12-20T14:17:51;5.60;99.90
5344;DHT22;2694;48.954;8.928;2023-12-20T14:20:18;5.60;99.90
5344;DHT22;2694;48.954;8.928;2023-12-20T14:22:45;5.50;99.90
5344;DHT22;2694;48.954;8.928;2023-12-20T14:25:13;5.50;99.90
5344;DHT22;2694;48.954;8.928;2023-12-20T14:27:41;5.50;99.90
5344;DHT22;2694;48.954;8.928;2023-12-20T14:30:09;5.50;99.90
5344;DHT22;2694;48.954;8.928;2023-12-20T14:32:40;5.50;99.90
5344;DHT22;2694;48.954;8.928;2023-12-20T14:35:08;5.40;99.90
5344;DHT22;2694;48.954;8.928;2023-12-20T14:37:35;5.30;99.90
5344;DHT22;2694;48.954;8.928;2023-12-20T14:40:06;5.40;99.90
5344;DHT22;2694;48.954;8.928;2023-12-20T14:42:36;5.40;99.90
5344;DHT22;2694;48.954;8.928;2023-12-20T14:45:04;5.40;99.90
5344;DHT22;2694;48.954;8.928;2023-12-20T14:47:31;5.40;99.90
5344;DHT22;2694;48.954;8.928;2023-12-20T14:49:59;5.40;99.90
5344;DHT22;2694;48.954;8.928;2023-12-20T14:52:26;5.40;99.90
5344;DHT22;2694;48.954;8.928;2023-12-20T14:54:55;5.50;99.90
5344;DHT22;2694;48.954;8.928;2023-12-20T14:57:22;5.40;99.90
5344;DHT22;2694;48.954;8.928;2023-12-20T14:59:49;5.40;99.90
5344;DHT22;2694;48.954;8.928;2023-12-20T15:02:16;5.50;99.90
5344;DHT22;2694;48.954;8.928;2023-12-20T15:04:43;5.40;99.90
5344;DHT22;2694;48.954;8.928;2023-12-20T15:07:11;5.40;99.90
5344;DHT22;2694;48.954;8.928;2023-12-20T15:09:38;5.30;99.90
5344;DHT22;2694;48.954;8.928;2023-12-20T15:12:06;5.20;99.90
5344;DHT22;2694;48.954;8.928;2023-12-20T15:14:34;5.30;99.90
5344;DHT22;2694;48.954;8.928;2023-12-20T15:17:02;5.30;99.90
5344;DHT22;2694;48.954;8.928;2023-12-20T15:19:30;5.20;99.90
5344;DHT22;2694;48.954;8.928;2023-12-20T15:21:57;5.30;99.90
5344;DHT22;2694;48.954;8.928;2023-12-20T15:24:26;5.30;99.90
5344;DHT22;2694;48.954;8.928;2023-12-20T15:26:54;5.30;99.90
5344;DHT22;2694;48.954;8.928;2023-12-20T15:29:21;5.30;99.90
5344;DHT22;2694;48.954;8.928;2023-12-20T15:31:48;5.30;99.90
5344;DHT22;2694;48.954;8.928;2023-12-20T15:34:15;5.20;99.90
5344;DHT22;2694;48.954;8.928;2023-12-20T15:36:43;5.10;99.90
5344;DHT22;2694;48.954;8.928;2023-12-20T15:39:10;5.00;99.90
5344;DHT22;2694;48.954;8.928;2023-12-20T15:41:41;5.00;99.90
5344;DHT22;2694;48.954;8.928;2023-12-20T15:44:08;4.90;99.90
5344;DHT22;2694;48.954;8.928;2023-12-20T15:46:35;4.80;99.90
5344;DHT22;2694;48.954;8.928;2023-12-20T15:49:02;4.80;99.90
5344;DHT22;2694;48.954;8.928;2023-12-20T15:51:29;4.70;99.90
5344;DHT22;2694;48.954;8.928;2023-12-20T15:53:55;4.70;99.90
5344;DHT22;2694;48.954;8.928;2023-12-20T15:56:23;4.80;99.90
5344;DHT22;2694;48.954;8.928;2023-12-20T15:58:51;4.90;99.90
5344;DHT22;2694;48.954;8.928;2023-12-20T16:01:20;4.90;99.90
5344;DHT22;2694;48.954;8.928;2023-12-20T16:03:47;4.90;99.90
5344;DHT22;2694;48.954;8.928;2023-12-20T16:06:13;4.90;99.90
5344;DHT22;2694;48.954;8.928;2023-12-20T16:08:41;5.00;99.90
5344;DHT22;2694;48.954;8.928;2023-12-20T16:11:08;5.10;99.90
5344;DHT22;2694;48.954;8.928;2023-12-20T16:13:35;5.20;99.90
5344;DHT22;2694;48.954;8.928;2023-12-20T16:16:04;5.10;99.90
5344;DHT22;2694;48.954;8.928;2023-12-20T16:18:31;5.20;99.90